MUC | München Airways

 METAR UND TAF INFORMATION

METAR FOR LDDU
ADDS - METARS form results

(1934 UTC 22 May 2019)
Data provider http://aviationweather.gov/metar/data/
 
METAR text: LDDU 221930Z 00000KT CAVOK 15/13 Q1016 NOSIG
Conditions at: LDDU (DUBROVNIK-CILIPI, HR) observed 1930 UTC 22 May 2019
Temperature: 15.0°C (59°F)
Dewpoint: 13.0°C (55°F) [RH = 88%]
Pressure (altimeter): 30.00 inches Hg (1016.0 mb)
Winds: calm
Visibility: 6 or more miles (10+ km)
Ceiling: ceiling and visibility are OK
Clouds: unknown
Weather: no significant weather observed at this time

METAR text: LDDU 221900Z VRB01KT CAVOK 15/13 Q1016 NOSIG
Conditions at: LDDU (DUBROVNIK-CILIPI, HR) observed 1900 UTC 22 May 2019
Temperature: 15.0°C (59°F)
Dewpoint: 13.0°C (55°F) [RH = 88%]
Pressure (altimeter): 30.00 inches Hg (1016.0 mb)
Winds: variable direction winds at 1 MPH (1 knots; 0.5 m/s)
Visibility: 6 or more miles (10+ km)
Ceiling: ceiling and visibility are OK
Clouds: unknown
Weather: no significant weather observed at this time

Forecast for: LDDU (DUBROVNIK-CILIPI, HR)
Text: TAF LDDU 221725Z 2218/2318 08006KT 9999 FEW040 TX20/2312Z TN13/2303Z
Forecast period: 1800 UTC 22 May 2019 to 0800 UTC 23 May 2019
Forecast type: FROM: standard forecast or significant change
Winds: from the E (80 degrees) at 7 MPH (6 knots; 3.1 m/s)
Visibility: 6 or more miles 10+ km)
Ceiling: at least 12,000 feet AGL
Clouds: few clouds at 4000 feet AGL
Weather: no significant weather forecast for this period
Text: BECMG 2308/2310 30008KT
Forecast period: 0800 to 1800 UTC 23 May 2019
Forecast type: BECOMING: Conditions expected to become as follows by 1000 UTC 23 May 2019
Winds: from the WNW (300 degrees) at 9 MPH (8 knots; 4.1 m/s)
Visibility: 6 or more miles 10+ km)
Ceiling: at least 12,000 feet AGL
Clouds: few clouds at 4000 feet AGL
Weather: no significant weather forecast for this period
Text: PROB30
Forecast period: 1300 to 1600 UTC 23 May 2019
Forecast type: TEMPORARY: The following changes expected for less than half the time period
Visibility: missing
Ceiling: at least 12,000 feet AGL
Clouds: few clouds at 3000 feet AGL
scattered clouds at 3500 feet AGL
Weather: TSRA  (rain associated with thunderstorm(s))

 FLUGHAFENKARTE

 RUNWAY INFORMATION
Runway 12 Runway length 10827 ft Runway width 148 ft
Runway elevation 519 ft Runway displaced threshold 488 ft Runway heading 118
Runway 30 Runway length 10827 ft Runway width 148 ft
Runway elevation 484 ft Runway displaced threshold 0 ft Runway heading 298

 AIRPORT FREQUENCIES
Type APP Name APP Frequency 123.6 MHZ
Type TWR Name TWR Frequency 129.5 MHZ

 AIRPORT NEAR NAVIGATION AIDS
Type NDB Name Dubrovnik Frequency 397 KHZ
Type VOR-DME Name Dubrovnik Frequency 115400 KHZ
Type NDB Name Dubrovnik Frequency 414 KHZ
Type NDB Name Kolocep Frequency 318 KHZ